sensor_id;sensor_type;location;lat;lon;timestamp;temperature;humidity
19168;DHT22;9716;53.114;18.040;2023-02-23T00:02:08;0.80;99.90
19168;DHT22;9716;53.114;18.040;2023-02-23T00:04:36;0.80;99.90
19168;DHT22;9716;53.114;18.040;2023-02-23T00:07:05;0.80;99.90
19168;DHT22;9716;53.114;18.040;2023-02-23T00:09:34;0.80;99.90
19168;DHT22;9716;53.114;18.040;2023-02-23T00:12:04;0.80;99.90
19168;DHT22;9716;53.114;18.040;2023-02-23T00:14:36;0.80;99.90
19168;DHT22;9716;53.114;18.040;2023-02-23T00:17:05;0.80;99.90
19168;DHT22;9716;53.114;18.040;2023-02-23T00:19:41;0.70;99.90
19168;DHT22;9716;53.114;18.040;2023-02-23T00:22:10;0.70;99.90
19168;DHT22;9716;53.114;18.040;2023-02-23T00:24:39;0.70;99.90
19168;DHT22;9716;53.114;18.040;2023-02-23T00:27:09;0.70;99.90
19168;DHT22;9716;53.114;18.040;2023-02-23T00:29:43;0.70;99.90
19168;DHT22;9716;53.114;18.040;2023-02-23T00:32:15;0.70;99.90
19168;DHT22;9716;53.114;18.040;2023-02-23T00:34:47;0.70;99.90
19168;DHT22;9716;53.114;18.040;2023-02-23T00:37:16;0.70;99.90
19168;DHT22;9716;53.114;18.040;2023-02-23T00:39:44;0.60;99.90
19168;DHT22;9716;53.114;18.040;2023-02-23T00:42:13;0.60;99.90
19168;DHT22;9716;53.114;18.040;2023-02-23T00:44:41;0.60;99.90
19168;DHT22;9716;53.114;18.040;2023-02-23T00:47:10;0.60;99.90
19168;DHT22;9716;53.114;18.040;2023-02-23T00:49:38;0.60;99.90
19168;DHT22;9716;53.114;18.040;2023-02-23T00:52:08;0.60;99.90
19168;DHT22;9716;53.114;18.040;2023-02-23T00:54:36;0.60;99.90
19168;DHT22;9716;53.114;18.040;2023-02-23T00:57:05;0.60;99.90
19168;DHT22;9716;53.114;18.040;2023-02-23T00:59:34;0.60;99.90
19168;DHT22;9716;53.114;18.040;2023-02-23T01:02:03;0.50;99.90
19168;DHT22;9716;53.114;18.040;2023-02-23T01:04:31;0.50;99.90
19168;DHT22;9716;53.114;18.040;2023-02-23T01:06:59;0.50;99.90
19168;DHT22;9716;53.114;18.040;2023-02-23T01:09:31;0.50;99.90
19168;DHT22;9716;53.114;18.040;2023-02-23T01:12:00;0.50;99.90
19168;DHT22;9716;53.114;18.040;2023-02-23T01:14:33;0.40;99.90
19168;DHT22;9716;53.114;18.040;2023-02-23T01:17:03;0.40;99.90
19168;DHT22;9716;53.114;18.040;2023-02-23T01:19:33;0.40;99.90
19168;DHT22;9716;53.114;18.040;2023-02-23T01:22:02;0.40;99.90
19168;DHT22;9716;53.114;18.040;2023-02-23T01:24:31;0.40;99.90
19168;DHT22;9716;53.114;18.040;2023-02-23T01:27:00;0.40;99.90
19168;DHT22;9716;53.114;18.040;2023-02-23T01:29:28;0.30;99.90
19168;DHT22;9716;53.114;18.040;2023-02-23T01:31:57;0.30;99.90
19168;DHT22;9716;53.114;18.040;2023-02-23T01:34:25;0.30;99.90
19168;DHT22;9716;53.114;18.040;2023-02-23T01:36:54;0.30;99.90
19168;DHT22;9716;53.114;18.040;2023-02-23T01:39:22;0.30;99.90
19168;DHT22;9716;53.114;18.040;2023-02-23T01:41:52;0.30;99.90
19168;DHT22;9716;53.114;18.040;2023-02-23T01:47:28;0.30;99.90
19168;DHT22;9716;53.114;18.040;2023-02-23T01:49:56;0.30;99.90
19168;DHT22;9716;53.114;18.040;2023-02-23T01:52:25;0.30;99.90
19168;DHT22;9716;53.114;18.040;2023-02-23T01:54:54;0.30;99.90
19168;DHT22;9716;53.114;18.040;2023-02-23T01:57:24;0.30;99.90
19168;DHT22;9716;53.114;18.040;2023-02-23T01:59:53;0.30;99.90
19168;DHT22;9716;53.114;18.040;2023-02-23T02:02:25;0.30;99.90
19168;DHT22;9716;53.114;18.040;2023-02-23T02:05:02;0.30;99.90
19168;DHT22;9716;53.114;18.040;2023-02-23T02:07:43;0.20;99.90
19168;DHT22;9716;53.114;18.040;2023-02-23T02:10:13;0.20;99.90
19168;DHT22;9716;53.114;18.040;2023-02-23T02:13:08;0.20;99.90
19168;DHT22;9716;53.114;18.040;2023-02-23T02:16:06;0.20;99.90
19168;DHT22;9716;53.114;18.040;2023-02-23T02:18:49;0.10;99.90
19168;DHT22;9716;53.114;18.040;2023-02-23T02:21:58;0.10;99.90
19168;DHT22;9716;53.114;18.040;2023-02-23T02:27:55;0.10;99.90
19168;DHT22;9716;53.114;18.040;2023-02-23T02:30:47;0.10;99.90
19168;DHT22;9716;53.114;18.040;2023-02-23T02:33:54;0.00;99.90
19168;DHT22;9716;53.114;18.040;2023-02-23T02:37:09;0.00;99.90
19168;DHT22;9716;53.114;18.040;2023-02-23T02:39:46;0.00;99.90
19168;DHT22;9716;53.114;18.040;2023-02-23T02:42:26;0.00;99.90
19168;DHT22;9716;53.114;18.040;2023-02-23T02:45:01;0.00;99.90
19168;DHT22;9716;53.114;18.040;2023-02-23T02:47:40;0.00;99.90
19168;DHT22;9716;53.114;18.040;2023-02-23T02:50:14;0.00;99.90
19168;DHT22;9716;53.114;18.040;2023-02-23T02:52:48;0.00;99.90
19168;DHT22;9716;53.114;18.040;2023-02-23T02:55:24;0.00;99.90
19168;DHT22;9716;53.114;18.040;2023-02-23T02:57:56;0.00;99.90
19168;DHT22;9716;53.114;18.040;2023-02-23T03:00:30;0.00;99.90
19168;DHT22;9716;53.114;18.040;2023-02-23T03:03:28;0.00;99.90
19168;DHT22;9716;53.114;18.040;2023-02-23T03:06:14;-0.10;99.90
19168;DHT22;9716;53.114;18.040;2023-02-23T03:09:09;-0.10;99.90
19168;DHT22;9716;53.114;18.040;2023-02-23T03:12:03;-0.10;99.90
19168;DHT22;9716;53.114;18.040;2023-02-23T03:15:00;-0.20;99.90
19168;DHT22;9716;53.114;18.040;2023-02-23T03:17:52;-0.20;99.90
19168;DHT22;9716;53.114;18.040;2023-02-23T03:20:44;-0.20;99.90
19168;DHT22;9716;53.114;18.040;2023-02-23T03:23:39;-0.20;99.90
19168;DHT22;9716;53.114;18.040;2023-02-23T03:26:35;-0.20;99.90
19168;DHT22;9716;53.114;18.040;2023-02-23T03:29:28;-0.20;99.90
19168;DHT22;9716;53.114;18.040;2023-02-23T03:32:20;-0.20;99.90
19168;DHT22;9716;53.114;18.040;2023-02-23T03:35:11;-0.20;99.90
19168;DHT22;9716;53.114;18.040;2023-02-23T03:38:03;-0.20;99.90
19168;DHT22;9716;53.114;18.040;2023-02-23T03:40:50;-0.20;99.90
19168;DHT22;9716;53.114;18.040;2023-02-23T03:43:41;-0.20;99.90
19168;DHT22;9716;53.114;18.040;2023-02-23T03:46:31;-0.20;99.90
19168;DHT22;9716;53.114;18.040;2023-02-23T03:49:19;-0.20;99.90
19168;DHT22;9716;53.114;18.040;2023-02-23T03:52:09;-0.20;99.90
19168;DHT22;9716;53.114;18.040;2023-02-23T03:54:59;-0.20;99.90
19168;DHT22;9716;53.114;18.040;2023-02-23T03:57:49;-0.20;99.90
19168;DHT22;9716;53.114;18.040;2023-02-23T04:00:42;-0.20;99.90
19168;DHT22;9716;53.114;18.040;2023-02-23T04:03:31;-0.20;99.90
19168;DHT22;9716;53.114;18.040;2023-02-23T04:06:22;-0.20;99.90
19168;DHT22;9716;53.114;18.040;2023-02-23T04:09:09;-0.20;99.90
19168;DHT22;9716;53.114;18.040;2023-02-23T04:11:58;-0.20;99.90
19168;DHT22;9716;53.114;18.040;2023-02-23T04:14:53;-0.20;99.90
19168;DHT22;9716;53.114;18.040;2023-02-23T04:17:25;-0.20;99.90
19168;DHT22;9716;53.114;18.040;2023-02-23T04:20:00;-0.20;99.90
19168;DHT22;9716;53.114;18.040;2023-02-23T04:22:29;-0.10;99.90
19168;DHT22;9716;53.114;18.040;2023-02-23T04:24:57;-0.20;99.90
19168;DHT22;9716;53.114;18.040;2023-02-23T04:27:26;-0.20;99.90
19168;DHT22;9716;53.114;18.040;2023-02-23T04:29:54;-0.20;99.90
19168;DHT22;9716;53.114;18.040;2023-02-23T04:32:24;-0.20;99.90
19168;DHT22;9716;53.114;18.040;2023-02-23T04:34:53;-0.20;99.90
19168;DHT22;9716;53.114;18.040;2023-02-23T04:37:21;-0.20;99.90
19168;DHT22;9716;53.114;18.040;2023-02-23T04:39:49;-0.20;99.90
19168;DHT22;9716;53.114;18.040;2023-02-23T04:42:18;-0.20;99.90
19168;DHT22;9716;53.114;18.040;2023-02-23T04:44:46;-0.20;99.90
19168;DHT22;9716;53.114;18.040;2023-02-23T04:47:15;-0.20;99.90
19168;DHT22;9716;53.114;18.040;2023-02-23T04:49:45;-0.20;99.90
19168;DHT22;9716;53.114;18.040;2023-02-23T04:52:14;-0.20;99.90
19168;DHT22;9716;53.114;18.040;2023-02-23T04:54:42;-0.20;99.90
19168;DHT22;9716;53.114;18.040;2023-02-23T04:57:11;-0.20;99.90
19168;DHT22;9716;53.114;18.040;2023-02-23T04:59:39;-0.20;99.90
19168;DHT22;9716;53.114;18.040;2023-02-23T05:02:08;-0.20;99.90
19168;DHT22;9716;53.114;18.040;2023-02-23T05:04:37;-0.10;99.90
19168;DHT22;9716;53.114;18.040;2023-02-23T05:07:07;-0.20;99.90
19168;DHT22;9716;53.114;18.040;2023-02-23T05:09:36;-0.20;99.90
19168;DHT22;9716;53.114;18.040;2023-02-23T05:12:04;-0.20;99.90
19168;DHT22;9716;53.114;18.040;2023-02-23T05:14:33;-0.20;99.90
19168;DHT22;9716;53.114;18.040;2023-02-23T05:17:01;-0.20;99.90
19168;DHT22;9716;53.114;18.040;2023-02-23T05:19:29;-0.10;99.90
19168;DHT22;9716;53.114;18.040;2023-02-23T05:21:58;-0.10;99.90
19168;DHT22;9716;53.114;18.040;2023-02-23T05:24:27;-0.10;99.90
19168;DHT22;9716;53.114;18.040;2023-02-23T05:26:56;-0.10;99.90
19168;DHT22;9716;53.114;18.040;2023-02-23T05:29:24;-0.10;99.90
19168;DHT22;9716;53.114;18.040;2023-02-23T05:31:53;-0.10;99.90
19168;DHT22;9716;53.114;18.040;2023-02-23T05:34:21;-0.10;99.90
19168;DHT22;9716;53.114;18.040;2023-02-23T05:36:50;-0.10;99.90
19168;DHT22;9716;53.114;18.040;2023-02-23T05:39:19;-0.10;99.90
19168;DHT22;9716;53.114;18.040;2023-02-23T05:41:48;-0.10;99.90
19168;DHT22;9716;53.114;18.040;2023-02-23T05:44:17;-0.10;99.90
19168;DHT22;9716;53.114;18.040;2023-02-23T05:46:45;-0.10;99.90
19168;DHT22;9716;53.114;18.040;2023-02-23T05:49:14;-0.10;99.90
19168;DHT22;9716;53.114;18.040;2023-02-23T05:51:44;0.00;99.90
19168;DHT22;9716;53.114;18.040;2023-02-23T05:54:13;-0.10;99.90
19168;DHT22;9716;53.114;18.040;2023-02-23T05:56:41;-0.10;99.90
19168;DHT22;9716;53.114;18.040;2023-02-23T05:59:11;0.00;99.90
19168;DHT22;9716;53.114;18.040;2023-02-23T06:01:40;0.00;99.90
19168;DHT22;9716;53.114;18.040;2023-02-23T06:04:08;0.00;99.90
19168;DHT22;9716;53.114;18.040;2023-02-23T06:06:37;0.00;99.90
19168;DHT22;9716;53.114;18.040;2023-02-23T06:09:06;0.10;99.90
19168;DHT22;9716;53.114;18.040;2023-02-23T06:11:34;0.10;99.90
19168;DHT22;9716;53.114;18.040;2023-02-23T06:14:03;0.10;99.90
19168;DHT22;9716;53.114;18.040;2023-02-23T06:16:32;0.20;99.90
19168;DHT22;9716;53.114;18.040;2023-02-23T06:19:01;0.20;99.90
19168;DHT22;9716;53.114;18.040;2023-02-23T06:21:29;0.30;99.90
19168;DHT22;9716;53.114;18.040;2023-02-23T06:23:58;0.30;99.90
19168;DHT22;9716;53.114;18.040;2023-02-23T06:26:27;0.50;99.90
19168;DHT22;9716;53.114;18.040;2023-02-23T06:28:56;0.40;99.90
19168;DHT22;9716;53.114;18.040;2023-02-23T06:31:24;0.50;99.90
19168;DHT22;9716;53.114;18.040;2023-02-23T06:33:54;0.50;99.90
19168;DHT22;9716;53.114;18.040;2023-02-23T06:36:22;0.60;99.90
19168;DHT22;9716;53.114;18.040;2023-02-23T06:38:51;0.60;99.90
19168;DHT22;9716;53.114;18.040;2023-02-23T06:41:23;0.60;99.90
19168;DHT22;9716;53.114;18.040;2023-02-23T06:43:51;0.70;99.90
19168;DHT22;9716;53.114;18.040;2023-02-23T06:46:20;0.70;99.90
19168;DHT22;9716;53.114;18.040;2023-02-23T06:48:49;0.80;99.90
19168;DHT22;9716;53.114;18.040;2023-02-23T06:51:19;0.90;99.90
19168;DHT22;9716;53.114;18.040;2023-02-23T06:53:47;0.90;99.90
19168;DHT22;9716;53.114;18.040;2023-02-23T06:56:18;0.90;99.90
19168;DHT22;9716;53.114;18.040;2023-02-23T06:58:47;1.00;99.90
19168;DHT22;9716;53.114;18.040;2023-02-23T07:01:16;1.10;99.90
19168;DHT22;9716;53.114;18.040;2023-02-23T07:03:46;1.20;99.90
19168;DHT22;9716;53.114;18.040;2023-02-23T07:06:14;1.30;99.90
19168;DHT22;9716;53.114;18.040;2023-02-23T07:08:44;1.30;99.90
19168;DHT22;9716;53.114;18.040;2023-02-23T07:11:14;1.40;99.90
19168;DHT22;9716;53.114;18.040;2023-02-23T07:13:43;1.50;99.90
19168;DHT22;9716;53.114;18.040;2023-02-23T07:16:11;1.60;99.90
19168;DHT22;9716;53.114;18.040;2023-02-23T07:18:42;1.70;99.90
19168;DHT22;9716;53.114;18.040;2023-02-23T07:21:10;1.70;99.90
19168;DHT22;9716;53.114;18.040;2023-02-23T07:23:39;1.80;99.90
19168;DHT22;9716;53.114;18.040;2023-02-23T07:26:09;1.90;99.90
19168;DHT22;9716;53.114;18.040;2023-02-23T07:28:42;2.00;99.90
19168;DHT22;9716;53.114;18.040;2023-02-23T07:31:14;2.00;99.90
19168;DHT22;9716;53.114;18.040;2023-02-23T07:33:43;2.10;99.90
19168;DHT22;9716;53.114;18.040;2023-02-23T07:36:11;2.20;99.90
19168;DHT22;9716;53.114;18.040;2023-02-23T07:38:40;2.30;99.90
19168;DHT22;9716;53.114;18.040;2023-02-23T07:41:10;2.40;99.90
19168;DHT22;9716;53.114;18.040;2023-02-23T07:43:38;2.50;99.90
19168;DHT22;9716;53.114;18.040;2023-02-23T07:46:07;2.60;99.90
19168;DHT22;9716;53.114;18.040;2023-02-23T07:48:36;2.80;99.90
19168;DHT22;9716;53.114;18.040;2023-02-23T07:51:08;2.90;99.90
19168;DHT22;9716;53.114;18.040;2023-02-23T07:53:37;2.90;99.90
19168;DHT22;9716;53.114;18.040;2023-02-23T07:56:06;3.10;99.90
19168;DHT22;9716;53.114;18.040;2023-02-23T07:58:39;3.20;99.90
19168;DHT22;9716;53.114;18.040;2023-02-23T08:01:09;3.40;99.90
19168;DHT22;9716;53.114;18.040;2023-02-23T08:03:38;3.50;99.90
19168;DHT22;9716;53.114;18.040;2023-02-23T08:06:07;3.60;99.90
19168;DHT22;9716;53.114;18.040;2023-02-23T08:08:35;3.80;99.90
19168;DHT22;9716;53.114;18.040;2023-02-23T08:11:06;3.90;99.90
19168;DHT22;9716;53.114;18.040;2023-02-23T08:13:35;3.90;99.90
19168;DHT22;9716;53.114;18.040;2023-02-23T08:16:06;4.00;99.90
19168;DHT22;9716;53.114;18.040;2023-02-23T08:18:35;4.00;99.90
19168;DHT22;9716;53.114;18.040;2023-02-23T08:21:04;4.10;99.90
19168;DHT22;9716;53.114;18.040;2023-02-23T08:23:33;4.10;99.90
19168;DHT22;9716;53.114;18.040;2023-02-23T08:26:02;4.20;99.90
19168;DHT22;9716;53.114;18.040;2023-02-23T08:28:31;4.30;99.90
19168;DHT22;9716;53.114;18.040;2023-02-23T08:30:59;4.40;99.90
19168;DHT22;9716;53.114;18.040;2023-02-23T08:33:29;4.50;99.90
19168;DHT22;9716;53.114;18.040;2023-02-23T08:35:59;4.60;99.90
19168;DHT22;9716;53.114;18.040;2023-02-23T08:38:29;4.70;99.90
19168;DHT22;9716;53.114;18.040;2023-02-23T08:40:59;4.90;99.90
19168;DHT22;9716;53.114;18.040;2023-02-23T08:43:27;5.10;99.90
19168;DHT22;9716;53.114;18.040;2023-02-23T08:45:56;5.30;99.90
19168;DHT22;9716;53.114;18.040;2023-02-23T08:48:24;5.50;99.90
19168;DHT22;9716;53.114;18.040;2023-02-23T08:50:57;5.60;99.90
19168;DHT22;9716;53.114;18.040;2023-02-23T08:53:26;5.70;99.90
19168;DHT22;9716;53.114;18.040;2023-02-23T08:55:56;5.80;99.90
19168;DHT22;9716;53.114;18.040;2023-02-23T08:58:25;6.00;99.90
19168;DHT22;9716;53.114;18.040;2023-02-23T09:00:54;6.10;99.90
19168;DHT22;9716;53.114;18.040;2023-02-23T09:03:22;6.40;99.90
19168;DHT22;9716;53.114;18.040;2023-02-23T09:05:52;6.50;99.90
19168;DHT22;9716;53.114;18.040;2023-02-23T09:08:22;6.50;99.90
19168;DHT22;9716;53.114;18.040;2023-02-23T09:10:51;6.50;99.90
19168;DHT22;9716;53.114;18.040;2023-02-23T09:13:19;6.60;99.90
19168;DHT22;9716;53.114;18.040;2023-02-23T09:15:48;6.70;99.90
19168;DHT22;9716;53.114;18.040;2023-02-23T09:18:16;6.90;99.90
19168;DHT22;9716;53.114;18.040;2023-02-23T09:20:45;7.00;99.90
19168;DHT22;9716;53.114;18.040;2023-02-23T09:23:13;7.30;99.90
19168;DHT22;9716;53.114;18.040;2023-02-23T09:25:44;7.40;99.90
19168;DHT22;9716;53.114;18.040;2023-02-23T09:28:15;7.60;99.90
19168;DHT22;9716;53.114;18.040;2023-02-23T09:30:44;7.70;99.90
19168;DHT22;9716;53.114;18.040;2023-02-23T09:33:14;7.80;99.90
19168;DHT22;9716;53.114;18.040;2023-02-23T09:35:43;7.60;99.90
19168;DHT22;9716;53.114;18.040;2023-02-23T09:38:11;7.50;99.90
19168;DHT22;9716;53.114;18.040;2023-02-23T09:40:46;7.50;99.90
19168;DHT22;9716;53.114;18.040;2023-02-23T09:43:20;7.40;99.90
19168;DHT22;9716;53.114;18.040;2023-02-23T09:45:52;7.30;99.90
19168;DHT22;9716;53.114;18.040;2023-02-23T09:48:25;7.10;99.90
19168;DHT22;9716;53.114;18.040;2023-02-23T09:50:56;7.00;99.90
19168;DHT22;9716;53.114;18.040;2023-02-23T09:53:36;6.90;99.90
19168;DHT22;9716;53.114;18.040;2023-02-23T09:56:13;6.90;99.90
19168;DHT22;9716;53.114;18.040;2023-02-23T09:58:43;7.00;99.90
19168;DHT22;9716;53.114;18.040;2023-02-23T10:01:35;7.10;99.90
19168;DHT22;9716;53.114;18.040;2023-02-23T10:04:11;7.20;99.90
19168;DHT22;9716;53.114;18.040;2023-02-23T10:06:47;7.30;99.90
19168;DHT22;9716;53.114;18.040;2023-02-23T10:09:22;7.30;99.90
19168;DHT22;9716;53.114;18.040;2023-02-23T10:12:03;7.40;99.90
19168;DHT22;9716;53.114;18.040;2023-02-23T10:14:51;7.50;99.90
19168;DHT22;9716;53.114;18.040;2023-02-23T10:17:29;7.60;99.90
19168;DHT22;9716;53.114;18.040;2023-02-23T10:20:05;7.70;99.90
19168;DHT22;9716;53.114;18.040;2023-02-23T10:22:40;7.80;99.90
19168;DHT22;9716;53.114;18.040;2023-02-23T10:25:11;7.90;99.90
19168;DHT22;9716;53.114;18.040;2023-02-23T10:27:46;7.90;99.90
19168;DHT22;9716;53.114;18.040;2023-02-23T10:30:32;7.90;99.90
19168;DHT22;9716;53.114;18.040;2023-02-23T10:33:06;7.90;99.90
19168;DHT22;9716;53.114;18.040;2023-02-23T10:35:40;7.90;99.90
19168;DHT22;9716;53.114;18.040;2023-02-23T10:38:13;7.90;99.90
19168;DHT22;9716;53.114;18.040;2023-02-23T10:40:43;7.90;99.90
19168;DHT22;9716;53.114;18.040;2023-02-23T10:43:15;7.80;99.90
19168;DHT22;9716;53.114;18.040;2023-02-23T10:45:45;7.80;99.90
19168;DHT22;9716;53.114;18.040;2023-02-23T10:48:17;7.70;99.90
19168;DHT22;9716;53.114;18.040;2023-02-23T10:50:48;7.80;99.90
19168;DHT22;9716;53.114;18.040;2023-02-23T10:53:21;7.80;99.90
19168;DHT22;9716;53.114;18.040;2023-02-23T10:56:02;7.90;99.90
19168;DHT22;9716;53.114;18.040;2023-02-23T10:58:41;7.90;99.90
19168;DHT22;9716;53.114;18.040;2023-02-23T11:01:13;8.00;99.90
19168;DHT22;9716;53.114;18.040;2023-02-23T11:03:44;8.00;99.90
19168;DHT22;9716;53.114;18.040;2023-02-23T11:06:35;8.00;99.90
19168;DHT22;9716;53.114;18.040;2023-02-23T11:09:20;8.00;99.90
19168;DHT22;9716;53.114;18.040;2023-02-23T11:12:15;8.10;99.90
19168;DHT22;9716;53.114;18.040;2023-02-23T11:14:51;8.10;99.90
19168;DHT22;9716;53.114;18.040;2023-02-23T11:17:28;8.10;99.90
19168;DHT22;9716;53.114;18.040;2023-02-23T11:20:04;8.10;99.90
19168;DHT22;9716;53.114;18.040;2023-02-23T11:22:34;7.90;99.90
19168;DHT22;9716;53.114;18.040;2023-02-23T11:25:14;8.10;99.90
19168;DHT22;9716;53.114;18.040;2023-02-23T11:27:48;8.20;99.90
19168;DHT22;9716;53.114;18.040;2023-02-23T11:30:21;8.20;99.90
19168;DHT22;9716;53.114;18.040;2023-02-23T11:32:53;8.30;99.90
19168;DHT22;9716;53.114;18.040;2023-02-23T11:35:28;8.30;99.90
19168;DHT22;9716;53.114;18.040;2023-02-23T11:37:56;8.30;99.90
19168;DHT22;9716;53.114;18.040;2023-02-23T11:40:28;8.30;99.90
19168;DHT22;9716;53.114;18.040;2023-02-23T11:43:06;8.40;99.90
19168;DHT22;9716;53.114;18.040;2023-02-23T11:45:44;8.40;99.90
19168;DHT22;9716;53.114;18.040;2023-02-23T11:48:20;8.50;99.90
19168;DHT22;9716;53.114;18.040;2023-02-23T11:50:50;8.50;99.90
19168;DHT22;9716;53.114;18.040;2023-02-23T11:53:29;8.60;99.90
19168;DHT22;9716;53.114;18.040;2023-02-23T11:56:01;8.60;99.90
19168;DHT22;9716;53.114;18.040;2023-02-23T11:58:37;8.60;99.90
19168;DHT22;9716;53.114;18.040;2023-02-23T12:01:10;8.70;99.90
19168;DHT22;9716;53.114;18.040;2023-02-23T12:03:45;8.90;99.90
19168;DHT22;9716;53.114;18.040;2023-02-23T12:06:25;8.90;99.90
19168;DHT22;9716;53.114;18.040;2023-02-23T12:09:00;9.00;99.90
19168;DHT22;9716;53.114;18.040;2023-02-23T12:11:35;9.10;99.90
19168;DHT22;9716;53.114;18.040;2023-02-23T12:14:09;9.10;99.90
19168;DHT22;9716;53.114;18.040;2023-02-23T12:16:43;9.30;99.90
19168;DHT22;9716;53.114;18.040;2023-02-23T12:19:22;9.40;99.90
19168;DHT22;9716;53.114;18.040;2023-02-23T12:21:57;9.50;99.90
19168;DHT22;9716;53.114;18.040;2023-02-23T12:24:36;9.60;99.90
19168;DHT22;9716;53.114;18.040;2023-02-23T12:27:11;9.60;99.90
19168;DHT22;9716;53.114;18.040;2023-02-23T12:29:49;9.50;99.90
19168;DHT22;9716;53.114;18.040;2023-02-23T12:32:23;9.50;99.90
19168;DHT22;9716;53.114;18.040;2023-02-23T12:34:55;9.50;99.90
19168;DHT22;9716;53.114;18.040;2023-02-23T12:37:33;9.50;99.90
19168;DHT22;9716;53.114;18.040;2023-02-23T12:40:12;9.50;99.90
19168;DHT22;9716;53.114;18.040;2023-02-23T12:45:34;9.50;99.90
19168;DHT22;9716;53.114;18.040;2023-02-23T12:48:13;9.50;99.90
19168;DHT22;9716;53.114;18.040;2023-02-23T12:50:48;9.50;99.90
19168;DHT22;9716;53.114;18.040;2023-02-23T12:53:20;9.60;99.90
19168;DHT22;9716;53.114;18.040;2023-02-23T12:56:03;9.60;99.90
19168;DHT22;9716;53.114;18.040;2023-02-23T12:58:39;9.60;99.90
19168;DHT22;9716;53.114;18.040;2023-02-23T13:01:10;9.60;99.90
19168;DHT22;9716;53.114;18.040;2023-02-23T13:03:59;9.60;99.90
19168;DHT22;9716;53.114;18.040;2023-02-23T13:06:38;9.50;99.90
19168;DHT22;9716;53.114;18.040;2023-02-23T13:09:23;9.40;99.90
19168;DHT22;9716;53.114;18.040;2023-02-23T13:12:24;9.40;99.90
19168;DHT22;9716;53.114;18.040;2023-02-23T13:15:00;9.30;99.90
19168;DHT22;9716;53.114;18.040;2023-02-23T13:17:39;9.30;99.90
19168;DHT22;9716;53.114;18.040;2023-02-23T13:20:16;9.30;99.90
19168;DHT22;9716;53.114;18.040;2023-02-23T13:22:48;9.30;99.90
19168;DHT22;9716;53.114;18.040;2023-02-23T13:25:27;9.30;99.90
19168;DHT22;9716;53.114;18.040;2023-02-23T13:27:58;9.20;99.90
19168;DHT22;9716;53.114;18.040;2023-02-23T13:30:28;9.20;99.90
19168;DHT22;9716;53.114;18.040;2023-02-23T13:33:02;9.20;99.90
19168;DHT22;9716;53.114;18.040;2023-02-23T13:35:34;9.10;99.90
19168;DHT22;9716;53.114;18.040;2023-02-23T13:38:13;9.10;99.90
19168;DHT22;9716;53.114;18.040;2023-02-23T13:40:45;9.10;99.90
19168;DHT22;9716;53.114;18.040;2023-02-23T13:43:20;9.00;99.90
19168;DHT22;9716;53.114;18.040;2023-02-23T13:46:08;8.90;99.90
19168;DHT22;9716;53.114;18.040;2023-02-23T13:48:47;8.90;99.90
19168;DHT22;9716;53.114;18.040;2023-02-23T13:51:34;8.90;99.90
19168;DHT22;9716;53.114;18.040;2023-02-23T13:54:16;8.90;99.90
19168;DHT22;9716;53.114;18.040;2023-02-23T13:56:54;8.80;99.90
19168;DHT22;9716;53.114;18.040;2023-02-23T13:59:25;8.80;99.90
19168;DHT22;9716;53.114;18.040;2023-02-23T14:01:56;8.80;99.90
19168;DHT22;9716;53.114;18.040;2023-02-23T14:04:33;8.80;99.90
19168;DHT22;9716;53.114;18.040;2023-02-23T14:07:15;8.70;99.90
19168;DHT22;9716;53.114;18.040;2023-02-23T14:09:51;8.70;99.90
19168;DHT22;9716;53.114;18.040;2023-02-23T14:12:24;8.70;99.90
19168;DHT22;9716;53.114;18.040;2023-02-23T14:14:53;8.70;99.90
19168;DHT22;9716;53.114;18.040;2023-02-23T14:17:39;8.70;99.90
19168;DHT22;9716;53.114;18.040;2023-02-23T14:20:19;8.70;99.90
19168;DHT22;9716;53.114;18.040;2023-02-23T14:26:11;8.60;99.90
19168;DHT22;9716;53.114;18.040;2023-02-23T14:28:43;8.60;99.90
19168;DHT22;9716;53.114;18.040;2023-02-23T14:31:20;8.60;99.90
19168;DHT22;9716;53.114;18.040;2023-02-23T14:33:58;8.60;99.90
19168;DHT22;9716;53.114;18.040;2023-02-23T14:36:41;8.50;99.90
19168;DHT22;9716;53.114;18.040;2023-02-23T14:39:17;8.50;99.90
19168;DHT22;9716;53.114;18.040;2023-02-23T14:41:52;8.40;99.90
19168;DHT22;9716;53.114;18.040;2023-02-23T14:44:25;8.40;99.90
19168;DHT22;9716;53.114;18.040;2023-02-23T14:47:01;8.40;99.90
19168;DHT22;9716;53.114;18.040;2023-02-23T14:49:32;8.30;99.90
19168;DHT22;9716;53.114;18.040;2023-02-23T14:52:06;8.30;99.90
19168;DHT22;9716;53.114;18.040;2023-02-23T14:54:37;8.20;99.90
19168;DHT22;9716;53.114;18.040;2023-02-23T14:57:16;8.20;99.90
19168;DHT22;9716;53.114;18.040;2023-02-23T14:59:56;8.10;99.90
19168;DHT22;9716;53.114;18.040;2023-02-23T15:02:27;8.00;99.90
19168;DHT22;9716;53.114;18.040;2023-02-23T15:04:57;8.00;99.90
19168;DHT22;9716;53.114;18.040;2023-02-23T15:07:30;8.00;99.90
19168;DHT22;9716;53.114;18.040;2023-02-23T15:10:08;7.90;99.90
19168;DHT22;9716;53.114;18.040;2023-02-23T15:12:38;7.80;99.90
19168;DHT22;9716;53.114;18.040;2023-02-23T15:15:23;7.80;99.90
19168;DHT22;9716;53.114;18.040;2023-02-23T15:17:54;7.70;99.90
19168;DHT22;9716;53.114;18.040;2023-02-23T15:20:31;7.70;99.90
19168;DHT22;9716;53.114;18.040;2023-02-23T15:23:01;7.60;99.90
19168;DHT22;9716;53.114;18.040;2023-02-23T15:25:36;7.60;99.90
19168;DHT22;9716;53.114;18.040;2023-02-23T15:28:20;7.60;99.90
19168;DHT22;9716;53.114;18.040;2023-02-23T15:30:51;7.50;99.90
19168;DHT22;9716;53.114;18.040;2023-02-23T15:33:20;7.50;99.90
19168;DHT22;9716;53.114;18.040;2023-02-23T15:36:00;7.40;99.90
19168;DHT22;9716;53.114;18.040;2023-02-23T15:38:33;7.40;99.90
19168;DHT22;9716;53.114;18.040;2023-02-23T15:41:17;7.40;99.90
19168;DHT22;9716;53.114;18.040;2023-02-23T15:43:50;7.30;99.90
19168;DHT22;9716;53.114;18.040;2023-02-23T15:46:22;7.30;99.90
19168;DHT22;9716;53.114;18.040;2023-02-23T15:48:54;7.20;99.90
19168;DHT22;9716;53.114;18.040;2023-02-23T15:51:32;7.20;99.90
19168;DHT22;9716;53.114;18.040;2023-02-23T15:54:05;7.10;99.90
19168;DHT22;9716;53.114;18.040;2023-02-23T15:56:40;7.10;99.90
19168;DHT22;9716;53.114;18.040;2023-02-23T15:59:19;7.00;99.90
19168;DHT22;9716;53.114;18.040;2023-02-23T16:01:52;7.00;99.90
19168;DHT22;9716;53.114;18.040;2023-02-23T16:04:26;6.90;99.90
19168;DHT22;9716;53.114;18.040;2023-02-23T16:07:07;6.80;99.90
19168;DHT22;9716;53.114;18.040;2023-02-23T16:09:38;6.80;99.90
19168;DHT22;9716;53.114;18.040;2023-02-23T16:12:10;6.70;99.90
19168;DHT22;9716;53.114;18.040;2023-02-23T16:14:47;6.70;99.90
19168;DHT22;9716;53.114;18.040;2023-02-23T16:17:23;6.70;99.90
19168;DHT22;9716;53.114;18.040;2023-02-23T16:19:53;6.60;99.90
19168;DHT22;9716;53.114;18.040;2023-02-23T16:22:24;6.60;99.90
19168;DHT22;9716;53.114;18.040;2023-02-23T16:25:00;6.50;99.90
19168;DHT22;9716;53.114;18.040;2023-02-23T16:27:31;6.50;99.90
19168;DHT22;9716;53.114;18.040;2023-02-23T16:30:14;6.40;99.90
19168;DHT22;9716;53.114;18.040;2023-02-23T16:32:43;6.40;99.90
19168;DHT22;9716;53.114;18.040;2023-02-23T16:35:17;6.30;99.90
19168;DHT22;9716;53.114;18.040;2023-02-23T16:37:54;6.30;99.90
19168;DHT22;9716;53.114;18.040;2023-02-23T16:40:24;6.30;99.90